Le Saint Quay — FJ2202 — position and weather

sailwx.info

Track history (hours):
 
Tides and Currents Weather Stations Pressure Air Temp Water Temp Dewpoint Dewpoint Depression Visibility Wind Speed Wind Dir Waves Ship Positions

Le Saint Quay

Last reported at 2017-Aug-29 10:28 UTC. Time now 2017-Sep-23 02:27 UTC.
Position N 48°39' W 002°49'.
Warning: this ship's position is 24 days out of date.

Length 12 m.

Type: Sailing vessel. MMSI: 227343230.

Date/timePositionNaut miles runAvg speedWind from/ knotsBaromVisibWave heightAir tempDewpointWater temp
2017-Aug-29 10:28N 48°39' W 002°49'1 2.1
2017-Aug-29 10:00N 48°38' W 002°48'1 1.3
2017-Aug-29 09:12N 48°37' W 002°49'0 1.5
2017-Aug-29 09:00N 48°38' W 002°49'1 1.9
2017-Aug-29 08:31N 48°39' W 002°49'0 0.0
2017-Aug-28 13:53N 48°39' W 002°49'2 0.1
2017-Aug-27 11:31N 48°40' W 002°50'0 0.0
2017-Aug-27 11:25N 48°40' W 002°50'0 0.0
2017-Aug-27 10:37N 48°40' W 002°50'0 0.0
2017-Aug-27 10:07N 48°40' W 002°51'0 0.0
2017-Aug-27 09:45N 48°40' W 002°51'2 4.7
2017-Aug-27 09:22N 48°39' W 002°49'0 0.6
2017-Aug-27 08:37N 48°39' W 002°49'0 0.1
2017-Aug-27 08:28N 48°38' W 002°49'1 0.7
2017-Aug-27 07:40N 48°39' W 002°49'0 0.0
2017-Aug-27 07:22N 48°39' W 002°49'0 0.0
2017-Aug-26 15:10N 48°39' W 002°49'1 3.2
2017-Aug-26 15:00N 48°39' W 002°49'1 1.1
2017-Aug-26 13:55N 48°40' W 002°50'0 0.0
2017-Aug-26 11:26N 48°40' W 002°50'2 2.3
2017-Aug-26 10:36N 48°39' W 002°49'0 0.0
2017-Aug-26 10:21N 48°39' W 002°49'0 0.0
2017-Aug-26 09:59N 48°39' W 002°49'0 0.0
2017-Aug-26 08:53N 48°39' W 002°49'0 0.0
2017-Aug-26 08:29N 48°39' W 002°49'1 0.0
2017-Aug-25 15:11N 48°39' W 002°49'0 0.0
2017-Aug-25 15:00N 48°39' W 002°49'2 3.1
2017-Aug-25 14:28N 48°40' W 002°51'0 0.0
2017-Aug-25 13:19N 48°40' W 002°51'0 0.0
2017-Aug-25 12:58N 48°40' W 002°51'0 0.0
2017-Aug-25 12:28N 48°40' W 002°51'0 0.1
2017-Aug-25 11:51N 48°40' W 002°51'2 5.9
2017-Aug-25 11:30N 48°39' W 002°48'1 0.8
2017-Aug-25 10:06N 48°38' W 002°48'0 0.0
2017-Aug-25 10:00N 48°38' W 002°48'0 0.1
2017-Aug-25 08:42N 48°38' W 002°48'1 0.1
2017-Aug-24 14:52N 48°39' W 002°49'0 0.0
2017-Aug-24 10:12N 48°39' W 002°49'0 1.3
2017-Aug-24 09:58N 48°39' W 002°49'0 0.4
2017-Aug-24 08:49N 48°39' W 002°49'1 2.0
2017-Aug-24 08:18N 48°38' W 002°49'1 0.0
2017-Aug-23 15:16N 48°39' W 002°48'0 0.0
2017-Aug-22 13:30N 48°39' W 002°48'1 0.2
2017-Aug-22 10:09N 48°39' W 002°49'0 0.7
2017-Aug-22 10:00N 48°39' W 002°49'1 1.9
2017-Aug-22 09:30N 48°38' W 002°48'1 1.5
2017-Aug-22 08:59N 48°39' W 002°49'0 0.0
2017-Aug-21 14:18N 48°39' W 002°49'0 1.3
2017-Aug-21 13:58N 48°39' W 002°49'1 1.3
2017-Aug-21 13:28N 48°39' W 002°49'0 0.5
2017-Aug-21 12:59N 48°39' W 002°49'1 1.4
2017-Aug-21 12:27N 48°39' W 002°48'  
Track history (hours):
 
Tides and Currents Weather Stations Pressure Air Temp Water Temp Dewpoint Dewpoint Depression Visibility Wind Speed Wind Dir Waves Ship Positions

Le Saint Quay

Last reported at 2017-Aug-29 10:28 UTC. Time now 2017-Sep-23 02:27 UTC.
Position N 48°39' W 002°49'.
Warning: this ship's position is 24 days out of date.

Length 12 m.

Type: Sailing vessel. MMSI: 227343230.

Date/timePositionNaut miles runAvg speedWind from/ knotsBaromVisibWave heightAir tempDewpointWater temp
2017-Aug-29 10:28N 48°39' W 002°49'1 2.1
2017-Aug-29 10:00N 48°38' W 002°48'1 1.3
2017-Aug-29 09:12N 48°37' W 002°49'0 1.5
2017-Aug-29 09:00N 48°38' W 002°49'1 1.9
2017-Aug-29 08:31N 48°39' W 002°49'0 0.0
2017-Aug-28 13:53N 48°39' W 002°49'2 0.1
2017-Aug-27 11:31N 48°40' W 002°50'0 0.0
2017-Aug-27 11:25N 48°40' W 002°50'0 0.0
2017-Aug-27 10:37N 48°40' W 002°50'0 0.0
2017-Aug-27 10:07N 48°40' W 002°51'0 0.0
2017-Aug-27 09:45N 48°40' W 002°51'2 4.7
2017-Aug-27 09:22N 48°39' W 002°49'0 0.6
2017-Aug-27 08:37N 48°39' W 002°49'0 0.1
2017-Aug-27 08:28N 48°38' W 002°49'1 0.7
2017-Aug-27 07:40N 48°39' W 002°49'0 0.0
2017-Aug-27 07:22N 48°39' W 002°49'0 0.0
2017-Aug-26 15:10N 48°39' W 002°49'1 3.2
2017-Aug-26 15:00N 48°39' W 002°49'1 1.1
2017-Aug-26 13:55N 48°40' W 002°50'0 0.0
2017-Aug-26 11:26N 48°40' W 002°50'2 2.3
2017-Aug-26 10:36N 48°39' W 002°49'0 0.0
2017-Aug-26 10:21N 48°39' W 002°49'0 0.0
2017-Aug-26 09:59N 48°39' W 002°49'0 0.0
2017-Aug-26 08:53N 48°39' W 002°49'0 0.0
2017-Aug-26 08:29N 48°39' W 002°49'1 0.0
2017-Aug-25 15:11N 48°39' W 002°49'0 0.0
2017-Aug-25 15:00N 48°39' W 002°49'2 3.1
2017-Aug-25 14:28N 48°40' W 002°51'0 0.0
2017-Aug-25 13:19N 48°40' W 002°51'0 0.0
2017-Aug-25 12:58N 48°40' W 002°51'0 0.0
2017-Aug-25 12:28N 48°40' W 002°51'0 0.1
2017-Aug-25 11:51N 48°40' W 002°51'2 5.9
2017-Aug-25 11:30N 48°39' W 002°48'1 0.8
2017-Aug-25 10:06N 48°38' W 002°48'0 0.0
2017-Aug-25 10:00N 48°38' W 002°48'0 0.1
2017-Aug-25 08:42N 48°38' W 002°48'1 0.1
2017-Aug-24 14:52N 48°39' W 002°49'0 0.0
2017-Aug-24 10:12N 48°39' W 002°49'0 1.3
2017-Aug-24 09:58N 48°39' W 002°49'0 0.4
2017-Aug-24 08:49N 48°39' W 002°49'1 2.0
2017-Aug-24 08:18N 48°38' W 002°49'1 0.0
2017-Aug-23 15:16N 48°39' W 002°48'0 0.0
2017-Aug-22 13:30N 48°39' W 002°48'1 0.2
2017-Aug-22 10:09N 48°39' W 002°49'0 0.7
2017-Aug-22 10:00N 48°39' W 002°49'1 1.9
2017-Aug-22 09:30N 48°38' W 002°48'1 1.5
2017-Aug-22 08:59N 48°39' W 002°49'0 0.0
2017-Aug-21 14:18N 48°39' W 002°49'0 1.3
2017-Aug-21 13:58N 48°39' W 002°49'1 1.3
2017-Aug-21 13:28N 48°39' W 002°49'0 0.5
2017-Aug-21 12:59N 48°39' W 002°49'1 1.4
2017-Aug-21 12:27N 48°39' W 002°48'  

Dump ship's entire track history